createdAt,value
2023-04-14T00:00:07.030Z,100387.09
2023-04-14T00:02:08.841Z,100382.81
2023-04-14T00:04:10.828Z,100394.63
2023-04-14T00:06:12.722Z,100390.41
2023-04-14T00:08:14.614Z,100385.88
2023-04-14T00:10:16.449Z,100382.34
2023-04-14T00:12:18.314Z,100380.88
2023-04-14T00:14:20.109Z,100377.22
2023-04-14T00:16:21.925Z,100376.47
2023-04-14T00:18:24.003Z,100365.97
2023-04-14T00:20:25.912Z,100371.28
2023-04-14T00:22:27.742Z,100376.44
2023-04-14T00:24:29.552Z,100374.72
2023-04-14T00:26:32.091Z,100367.94
2023-04-14T00:28:33.886Z,100371.13
2023-04-14T00:30:35.608Z,100366.06
2023-04-14T00:32:37.356Z,100365.97
2023-04-14T00:34:39.167Z,100366.69
2023-04-14T00:36:40.936Z,100377.00
2023-04-14T00:38:42.778Z,100370.75
2023-04-14T00:40:44.620Z,100370.75
2023-04-14T00:42:47.470Z,100361.19
2023-04-14T00:44:49.218Z,100367.72
2023-04-14T00:46:51.723Z,100363.81
2023-04-14T00:48:55.788Z,100365.06
2023-04-14T00:50:58.884Z,100359.81
2023-04-14T00:53:02.311Z,100363.13
2023-04-14T00:55:06.010Z,100366.59
2023-04-14T00:57:09.804Z,100364.25
2023-04-14T00:59:12.694Z,100361.69
2023-04-14T01:01:15.425Z,100360.84
2023-04-14T01:03:17.383Z,100358.00
2023-04-14T01:05:19.389Z,100354.41
2023-04-14T01:07:22.448Z,100360.22
2023-04-14T01:09:24.482Z,100356.69
2023-04-14T01:11:36.505Z,100356.03
2023-04-14T01:13:46.949Z,100348.56
2023-04-14T01:16:01.232Z,100351.97
2023-04-14T01:18:16.467Z,100346.47
2023-04-14T01:20:33.273Z,100340.41
2023-04-14T01:22:44.157Z,100340.41
2023-04-14T01:24:57.107Z,100333.38
2023-04-14T01:27:29.432Z,100346.94
2023-04-14T01:29:42.068Z,100337.31
2023-04-14T01:31:48.455Z,100347.00
2023-04-14T01:34:05.165Z,100338.19
2023-04-14T01:36:13.783Z,100342.50
2023-04-14T01:38:27.526Z,100333.16
2023-04-14T01:40:32.278Z,100332.28
2023-04-14T01:42:36.822Z,100329.16
2023-04-14T01:44:40.728Z,100326.81
2023-04-14T01:46:44.852Z,100325.13
2023-04-14T01:48:48.051Z,100325.69
2023-04-14T01:50:49.937Z,100321.59
2023-04-14T01:52:54.989Z,100316.47
2023-04-14T01:54:59.639Z,100319.06
2023-04-14T01:57:04.053Z,100314.94
2023-04-14T01:59:06.363Z,100319.31
2023-04-14T02:01:08.684Z,100312.13
2023-04-14T02:03:11.881Z,100311.59
2023-04-14T02:05:16.077Z,100315.84
2023-04-14T02:07:21.861Z,100309.25
2023-04-14T02:09:26.709Z,100306.28
2023-04-14T02:11:29.843Z,100308.81
2023-04-14T02:13:34.108Z,100313.38
2023-04-14T02:15:38.841Z,100309.81
2023-04-14T02:17:42.957Z,100313.13
2023-04-14T02:19:46.423Z,100308.75
2023-04-14T02:21:51.006Z,100310.59
2023-04-14T02:23:52.950Z,100304.72
2023-04-14T02:26:00.793Z,100302.28
2023-04-14T02:28:08.908Z,100302.97
2023-04-14T02:30:14.791Z,100309.13
2023-04-14T02:32:23.503Z,100303.06
2023-04-14T02:34:29.352Z,100306.53
2023-04-14T02:36:39.428Z,100301.97
2023-04-14T02:38:55.567Z,100296.00
2023-04-14T02:40:58.567Z,100297.59
2023-04-14T02:43:04.644Z,100300.66
2023-04-14T02:45:12.167Z,100295.72
2023-04-14T02:47:22.257Z,100297.75
2023-04-14T02:49:25.454Z,100295.53
2023-04-14T02:51:28.346Z,100291.41
2023-04-14T02:53:30.400Z,100287.16
2023-04-14T02:55:33.757Z,100292.25
2023-04-14T02:57:36.044Z,100290.34
2023-04-14T02:59:39.115Z,100286.34
2023-04-14T03:01:43.455Z,100285.44
2023-04-14T03:03:45.602Z,100277.91
2023-04-14T03:05:48.818Z,100279.59
2023-04-14T03:07:52.690Z,100281.44
2023-04-14T03:09:55.854Z,100277.78
2023-04-14T03:11:58.763Z,100270.97
2023-04-14T03:14:01.343Z,100272.66
2023-04-14T03:16:03.829Z,100277.09
2023-04-14T03:18:07.178Z,100266.84
2023-04-14T03:20:13.215Z,100261.47
2023-04-14T03:22:17.522Z,100253.94
2023-04-14T03:24:24.602Z,100256.50
2023-04-14T03:26:28.286Z,100260.97
2023-04-14T03:28:32.648Z,100257.50
2023-04-14T03:30:37.002Z,100260.56
2023-04-14T03:32:42.394Z,100256.53
2023-04-14T03:34:48.634Z,100253.91
2023-04-14T03:36:52.790Z,100256.84
2023-04-14T03:38:58.915Z,100256.88
2023-04-14T03:41:05.627Z,100250.91
2023-04-14T03:43:10.059Z,100250.84
2023-04-14T03:45:12.264Z,100239.81
2023-04-14T03:47:14.718Z,100241.53
2023-04-14T03:49:18.793Z,100239.13
2023-04-14T03:51:24.429Z,100235.56
2023-04-14T03:53:29.631Z,100236.66
2023-04-14T03:55:33.934Z,100234.78
2023-04-14T03:57:37.584Z,100233.13
2023-04-14T03:59:41.638Z,100223.75
2023-04-14T04:01:45.140Z,100229.66
2023-04-14T04:03:48.722Z,100227.94
2023-04-14T04:05:51.134Z,100227.69
2023-04-14T04:07:54.084Z,100220.09
2023-04-14T04:09:57.069Z,100223.53
2023-04-14T04:12:00.201Z,100225.13
2023-04-14T04:14:04.470Z,100221.13
2023-04-14T04:16:09.712Z,100218.38
2023-04-14T04:18:15.456Z,100220.84
2023-04-14T04:20:18.774Z,100223.66
2023-04-14T04:22:24.056Z,100216.06
2023-04-14T04:24:29.104Z,100221.28
2023-04-14T04:26:31.039Z,100215.09
2023-04-14T04:28:33.100Z,100216.81
2023-04-14T04:30:39.991Z,100210.97
2023-04-14T04:32:41.815Z,100211.69
2023-04-14T04:34:44.428Z,100208.59
2023-04-14T04:36:47.261Z,100214.38
2023-04-14T04:38:50.125Z,100211.88
2023-04-14T04:40:51.901Z,100210.28
2023-04-14T04:42:53.672Z,100201.41
2023-04-14T04:44:55.477Z,100201.47
2023-04-14T04:46:57.360Z,100201.38
2023-04-14T04:49:01.858Z,100210.16
2023-04-14T04:51:03.986Z,100208.28
2023-04-14T04:53:05.991Z,100204.03
2023-04-14T04:55:08.058Z,100205.00
2023-04-14T04:57:12.143Z,100201.63
2023-04-14T04:59:14.322Z,100208.53
2023-04-14T05:01:17.048Z,100206.78
2023-04-14T05:03:18.851Z,100205.88
2023-04-14T05:05:20.848Z,100208.38
2023-04-14T05:07:22.654Z,100199.06
2023-04-14T05:09:24.538Z,100198.09
2023-04-14T05:11:27.204Z,100191.41
2023-04-14T05:13:29.027Z,100193.13
2023-04-14T05:15:30.905Z,100196.53
2023-04-14T05:17:32.689Z,100188.78
2023-04-14T05:19:34.731Z,100195.69
2023-04-14T05:21:36.643Z,100193.03
2023-04-14T05:23:39.982Z,100197.81
2023-04-14T05:25:45.841Z,100197.09
2023-04-14T05:27:48.900Z,100199.94
2023-04-14T05:29:51.938Z,100189.78
2023-04-14T05:31:53.783Z,100184.56
2023-04-14T05:33:55.780Z,100188.00
2023-04-14T05:35:57.684Z,100181.97
2023-04-14T05:37:59.474Z,100180.28
2023-04-14T05:40:01.531Z,100177.06
2023-04-14T05:42:03.420Z,100183.22
2023-04-14T05:44:05.497Z,100183.06
2023-04-14T05:46:07.218Z,100182.16
2023-04-14T05:48:09.412Z,100178.06
2023-04-14T05:50:11.760Z,100174.69
2023-04-14T05:52:13.487Z,100182.31
2023-04-14T05:54:15.684Z,100183.22
2023-04-14T05:56:17.448Z,100171.28
2023-04-14T05:58:19.863Z,100164.28
2023-04-14T06:00:23.495Z,100161.81
2023-04-14T06:02:25.596Z,100162.63
2023-04-14T06:04:30.783Z,100172.94
2023-04-14T06:06:32.788Z,100165.31
2023-04-14T06:08:34.649Z,100167.13
2023-04-14T06:10:36.518Z,100162.81
2023-04-14T06:12:38.382Z,100167.97
2023-04-14T06:14:40.947Z,100160.34
2023-04-14T06:16:42.823Z,100160.38
2023-04-14T06:18:44.820Z,100154.50
2023-04-14T06:20:49.894Z,100157.16
2023-04-14T06:22:51.738Z,100162.09
2023-04-14T06:24:53.708Z,100157.78
2023-04-14T06:26:55.832Z,100148.19
2023-04-14T06:28:57.977Z,100153.75
2023-04-14T06:31:00.788Z,100152.88
2023-04-14T06:33:04.775Z,100153.75
2023-04-14T06:35:08.058Z,100149.47
2023-04-14T06:37:12.503Z,100152.88
2023-04-14T06:39:14.446Z,100155.53
2023-04-14T06:41:16.496Z,100152.19
2023-04-14T06:43:18.558Z,100153.00
2023-04-14T06:45:22.547Z,100141.00
2023-04-14T06:47:25.604Z,100150.25
2023-04-14T06:49:27.472Z,100141.94
2023-04-14T06:51:29.448Z,100142.78
2023-04-14T06:53:31.548Z,100144.72
2023-04-14T06:55:36.377Z,100145.47
2023-04-14T06:57:38.200Z,100136.78
2023-04-14T06:59:40.009Z,100135.06
2023-04-14T07:01:42.119Z,100139.69
2023-04-14T07:03:44.702Z,100133.34
2023-04-14T07:05:46.785Z,100132.88
2023-04-14T07:07:48.760Z,100133.69
2023-04-14T07:09:50.672Z,100134.66
2023-04-14T07:11:53.750Z,100136.38
2023-04-14T07:13:55.634Z,100129.44
2023-04-14T07:15:57.807Z,100130.63
2023-04-14T07:18:00.230Z,100129.97
2023-04-14T07:20:03.995Z,100131.19
2023-04-14T07:22:07.684Z,100126.09
2023-04-14T07:24:09.754Z,100131.47
2023-04-14T07:26:11.945Z,100136.34
2023-04-14T07:28:13.898Z,100139.00
2023-04-14T07:30:15.988Z,100135.31
2023-04-14T07:32:18.744Z,100131.31
2023-04-14T07:34:20.891Z,100132.31
2023-04-14T07:36:22.833Z,100126.44
2023-04-14T07:38:26.568Z,100126.94
2023-04-14T07:40:28.615Z,100131.53
2023-04-14T07:42:30.910Z,100121.41
2023-04-14T07:44:33.358Z,100125.53
2023-04-14T07:46:35.263Z,100128.97
2023-04-14T07:48:38.204Z,100134.09
2023-04-14T07:50:40.136Z,100133.06
2023-04-14T07:52:42.150Z,100125.47
2023-04-14T07:54:45.928Z,100120.44
2023-04-14T07:56:48.862Z,100115.88
2023-04-14T07:58:53.695Z,100116.78
2023-04-14T08:00:58.611Z,100115.75
2023-04-14T08:03:00.901Z,100117.31
2023-04-14T08:05:03.078Z,100117.16
2023-04-14T08:07:04.994Z,100113.03
2023-04-14T08:09:07.197Z,100113.38
2023-04-14T08:11:09.138Z,100110.69
2023-04-14T08:13:11.151Z,100114.22
2023-04-14T08:15:13.175Z,100106.41
2023-04-14T08:17:15.115Z,100112.41
2023-04-14T08:19:17.050Z,100112.19
2023-04-14T08:21:18.998Z,100104.53
2023-04-14T08:23:21.484Z,100103.66
2023-04-14T08:25:24.122Z,100111.31
2023-04-14T08:27:26.099Z,100100.50
2023-04-14T08:29:28.461Z,100106.66
2023-04-14T08:31:30.399Z,100104.84
2023-04-14T08:33:34.015Z,100103.28
2023-04-14T08:35:41.581Z,100105.97
2023-04-14T08:37:44.362Z,100109.41
2023-04-14T08:39:46.362Z,100102.75
2023-04-14T08:41:52.588Z,100106.25
2023-04-14T08:43:55.039Z,100102.88
2023-04-14T08:45:59.763Z,100103.84
2023-04-14T08:48:03.771Z,100105.50
2023-04-14T08:50:10.989Z,100109.88
2023-04-14T08:52:13.424Z,100104.78
2023-04-14T08:54:16.517Z,100105.72
2023-04-14T08:56:19.014Z,100109.16
2023-04-14T08:58:21.618Z,100115.75
2023-04-14T09:00:23.918Z,100109.78
2023-04-14T09:02:27.627Z,100101.34
2023-04-14T09:04:33.706Z,100108.41
2023-04-14T09:06:36.587Z,100104.94
2023-04-14T09:08:38.459Z,100102.50
2023-04-14T09:10:42.899Z,100106.88
2023-04-14T09:12:45.760Z,100112.75
2023-04-14T09:14:48.688Z,100107.50
2023-04-14T09:16:54.072Z,100099.19
2023-04-14T09:18:57.527Z,100100.84
2023-04-14T09:21:49.029Z,100090.75
2023-04-14T09:23:30.279Z,100093.19
2023-04-14T09:25:32.282Z,100100.22
2023-04-14T09:27:34.380Z,100111.91
2023-04-14T09:29:37.576Z,100100.91
2023-04-14T09:31:40.046Z,100105.31
2023-04-14T09:33:50.804Z,100105.56
2023-04-14T09:35:58.623Z,100104.66
2023-04-14T09:38:00.579Z,100101.22
2023-04-14T09:40:02.477Z,100097.09
2023-04-14T09:42:04.826Z,100098.94
2023-04-14T09:44:08.672Z,100100.59
2023-04-14T09:46:10.924Z,100101.38
2023-04-14T09:48:13.300Z,100095.41
2023-04-14T09:50:15.378Z,100094.41
2023-04-14T09:52:17.339Z,100099.69
2023-04-14T09:54:26.750Z,100100.38
2023-04-14T09:56:31.949Z,100097.25
2023-04-14T09:58:36.008Z,100101.63
2023-04-14T10:00:37.848Z,100103.69
2023-04-14T10:02:50.088Z,100094.50
2023-04-14T10:05:06.697Z,100101.28
2023-04-14T10:07:09.104Z,100104.88
2023-04-14T10:09:22.413Z,100091.19
2023-04-14T10:11:26.484Z,100088.66
2023-04-14T10:13:28.396Z,100087.09
2023-04-14T10:15:31.060Z,100090.63
2023-04-14T10:17:34.201Z,100091.66
2023-04-14T10:19:37.912Z,100090.81
2023-04-14T10:21:39.929Z,100091.63
2023-04-14T10:23:42.674Z,100094.28
2023-04-14T10:25:45.043Z,100109.72
2023-04-14T10:27:47.539Z,100134.28
2023-04-14T10:29:49.637Z,100140.94
2023-04-14T10:31:55.515Z,100140.53
2023-04-14T10:33:57.616Z,100145.31
2023-04-14T10:36:01.177Z,100146.25
2023-04-14T10:38:04.815Z,100137.72
2023-04-14T10:40:08.219Z,100136.63
2023-04-14T10:42:10.414Z,100132.41
2023-04-14T10:44:22.629Z,100139.28
2023-04-14T10:46:24.816Z,100134.97
2023-04-14T10:48:32.545Z,100146.00
2023-04-14T10:50:48.179Z,100138.84
2023-04-14T10:52:56.247Z,100137.34
2023-04-14T10:55:08.053Z,100142.97
2023-04-14T10:57:14.747Z,100142.00
2023-04-14T10:59:17.827Z,100133.34
2023-04-14T11:01:26.185Z,100135.22
2023-04-14T11:03:32.738Z,100127.63
2023-04-14T11:05:35.878Z,100130.44
2023-04-14T11:07:45.870Z,100133.97
2023-04-14T11:09:49.507Z,100133.19
2023-04-14T11:11:52.396Z,100127.41
2023-04-14T11:14:11.120Z,100130.00
2023-04-14T11:16:14.939Z,100132.44
2023-04-14T11:18:32.818Z,100126.44
2023-04-14T11:20:39.997Z,100136.72
2023-04-14T11:22:45.749Z,100151.59
2023-04-14T11:24:48.153Z,100137.88
2023-04-14T11:26:55.481Z,100134.72
2023-04-14T11:28:57.879Z,100138.25
2023-04-14T11:31:02.417Z,100143.34
2023-04-14T11:33:04.338Z,100140.91
2023-04-14T11:35:08.365Z,100128.97
2023-04-14T11:37:11.091Z,100128.28
2023-04-14T11:39:16.070Z,100123.28
2023-04-14T11:41:18.149Z,100127.78
2023-04-14T11:43:22.814Z,100137.88
2023-04-14T11:45:32.073Z,100128.66
2023-04-14T11:47:34.007Z,100127.81
2023-04-14T11:49:36.899Z,100127.03
2023-04-14T11:51:39.044Z,100121.75
2023-04-14T11:53:43.343Z,100130.25
2023-04-14T11:55:48.263Z,100125.13
2023-04-14T11:57:50.134Z,100125.41
2023-04-14T11:59:52.103Z,100124.66
2023-04-14T12:01:54.005Z,100135.03
2023-04-14T12:03:58.069Z,100128.06
2023-04-14T12:06:01.895Z,100126.22
2023-04-14T12:08:07.781Z,100113.25
2023-04-14T12:10:10.257Z,100129.63
2023-04-14T12:12:13.997Z,100126.09
2023-04-14T12:14:19.517Z,100127.69
2023-04-14T12:16:22.289Z,100118.53
2023-04-14T12:18:24.216Z,100111.81
2023-04-14T12:20:28.173Z,100116.09
2023-04-14T12:22:31.050Z,100104.16
2023-04-14T12:24:42.692Z,100115.09
2023-04-14T12:26:44.987Z,100109.91
2023-04-14T12:28:56.058Z,100112.66
2023-04-14T12:31:01.653Z,100111.69
2023-04-14T12:33:10.180Z,100105.44
2023-04-14T12:35:12.040Z,100107.25
2023-04-14T12:37:14.052Z,100111.78
2023-04-14T12:39:15.920Z,100122.69
2023-04-14T12:41:28.382Z,100127.84
2023-04-14T12:43:32.925Z,100121.06
2023-04-14T12:45:45.342Z,100112.69
2023-04-14T12:47:54.654Z,100105.94
2023-04-14T12:49:57.382Z,100109.41
2023-04-14T12:52:00.442Z,100103.31
2023-04-14T12:54:09.527Z,100098.69
2023-04-14T12:56:16.634Z,100104.78
2023-04-14T12:58:18.576Z,100105.56
2023-04-14T13:00:22.199Z,100109.81
2023-04-14T13:02:24.273Z,100115.59
2023-04-14T13:04:26.375Z,100123.63
2023-04-14T13:06:28.239Z,100123.13
2023-04-14T13:08:32.814Z,100118.88
2023-04-14T13:10:34.629Z,100119.56
2023-04-14T13:12:36.623Z,100112.84
2023-04-14T13:14:39.326Z,100100.78
2023-04-14T13:16:41.620Z,100102.50
2023-04-14T13:18:44.854Z,100096.84
2023-04-14T13:20:58.038Z,100099.25
2023-04-14T13:23:00.130Z,100113.25
2023-04-14T13:25:02.711Z,100113.38
2023-04-14T13:27:04.625Z,100113.25
2023-04-14T13:29:06.739Z,100117.53
2023-04-14T13:31:08.717Z,100119.31
2023-04-14T13:33:11.216Z,100125.50
2023-04-14T13:35:13.151Z,100119.13
2023-04-14T13:37:15.084Z,100128.78
2023-04-14T13:39:17.147Z,100137.13
2023-04-14T13:41:19.763Z,100126.72
2023-04-14T13:43:24.924Z,100112.44
2023-04-14T13:45:27.029Z,100116.13
2023-04-14T13:47:29.531Z,100123.66
2023-04-14T13:49:31.919Z,100128.66
2023-04-14T13:51:33.970Z,100121.09
2023-04-14T13:53:35.962Z,100122.66
2023-04-14T13:55:41.491Z,100119.50
2023-04-14T13:57:43.507Z,100117.88
2023-04-14T13:59:45.359Z,100126.38
2023-04-14T14:01:50.578Z,100121.25
2023-04-14T14:03:52.881Z,100127.31
2023-04-14T14:05:54.985Z,100125.59
2023-04-14T14:08:00.015Z,100126.47
2023-04-14T14:10:03.180Z,100122.38
2023-04-14T14:12:05.437Z,100123.28
2023-04-14T14:14:07.474Z,100121.63
2023-04-14T14:16:09.554Z,100134.53
2023-04-14T14:18:11.459Z,100137.94
2023-04-14T14:20:13.432Z,100135.38
2023-04-14T14:22:15.618Z,100143.00
2023-04-14T14:24:17.522Z,100140.50
2023-04-14T14:26:19.332Z,100144.78
2023-04-14T14:28:23.800Z,100140.19
2023-04-14T14:30:25.976Z,100147.91
2023-04-14T14:32:30.473Z,100149.75
2023-04-14T14:34:32.612Z,100153.09
2023-04-14T14:36:34.598Z,100147.06
2023-04-14T14:38:37.373Z,100141.69
2023-04-14T14:40:39.285Z,100142.69
2023-04-14T14:42:41.225Z,100138.56
2023-04-14T14:44:43.238Z,100132.56
2023-04-14T14:46:46.216Z,100138.53
2023-04-14T14:48:48.158Z,100143.75
2023-04-14T14:50:50.152Z,100146.34
2023-04-14T14:52:52.225Z,100150.72
2023-04-14T14:54:54.084Z,100145.53
2023-04-14T14:56:56.708Z,100143.03
2023-04-14T14:59:00.906Z,100151.56
2023-04-14T15:01:02.936Z,100149.72
2023-04-14T15:03:07.621Z,100152.31
2023-04-14T15:05:13.130Z,100160.91
2023-04-14T15:07:15.494Z,100164.25
2023-04-14T15:09:17.537Z,100161.66
2023-04-14T15:11:19.584Z,100166.03
2023-04-14T15:13:22.150Z,100165.09
2023-04-14T15:15:24.177Z,100172.81
2023-04-14T15:17:26.238Z,100164.03
2023-04-14T15:19:30.639Z,100168.41
2023-04-14T15:21:32.945Z,100177.00
2023-04-14T15:23:37.342Z,100177.88
2023-04-14T15:25:39.200Z,100182.13
2023-04-14T15:27:41.150Z,100182.22
2023-04-14T15:29:43.117Z,100188.72
2023-04-14T15:31:44.964Z,100194.47
2023-04-14T15:33:46.905Z,100192.09
2023-04-14T15:35:48.901Z,100194.69
2023-04-14T15:37:50.872Z,100190.31
2023-04-14T15:39:55.538Z,100188.56
2023-04-14T15:41:58.634Z,100190.91
2023-04-14T15:44:00.979Z,100187.69
2023-04-14T15:46:03.709Z,100192.59
2023-04-14T15:48:05.775Z,100181.41
2023-04-14T15:50:10.722Z,100173.47
2023-04-14T15:52:14.917Z,100180.59
2023-04-14T15:54:16.743Z,100173.09
2023-04-14T15:56:23.277Z,100168.19
2023-04-14T15:58:25.961Z,100174.81
2023-04-14T16:00:28.245Z,100184.28
2023-04-14T16:02:34.273Z,100180.59
2023-04-14T16:04:37.073Z,100182.41
2023-04-14T16:06:39.361Z,100184.25
2023-04-14T16:08:41.684Z,100185.25
2023-04-14T16:10:43.915Z,100188.31
2023-04-14T16:12:45.730Z,100180.97
2023-04-14T16:14:47.898Z,100194.72
2023-04-14T16:16:49.731Z,100189.69
2023-04-14T16:18:51.681Z,100196.41
2023-04-14T16:20:53.825Z,100202.44
2023-04-14T16:22:55.686Z,100204.28
2023-04-14T16:24:57.526Z,100201.41
2023-04-14T16:26:59.983Z,100214.00
2023-04-14T16:29:02.130Z,100206.38
2023-04-14T16:31:04.614Z,100228.72
2023-04-14T16:33:07.110Z,100221.69
2023-04-14T16:35:09.572Z,100223.13
2023-04-14T16:37:11.584Z,100226.81
2023-04-14T16:39:13.982Z,100223.31
2023-04-14T16:41:16.009Z,100220.88
2023-04-14T16:43:17.836Z,100224.44
2023-04-14T16:45:20.344Z,100231.28
2023-04-14T16:47:23.483Z,100228.56
2023-04-14T16:49:25.547Z,100231.09
2023-04-14T16:51:28.070Z,100233.69
2023-04-14T16:53:30.146Z,100237.97
2023-04-14T16:55:34.116Z,100239.09
2023-04-14T16:57:36.088Z,100239.94
2023-04-14T16:59:37.987Z,100250.88
2023-04-14T17:01:42.470Z,100246.66
2023-04-14T17:03:44.844Z,100247.50
2023-04-14T17:05:46.963Z,100249.31
2023-04-14T17:07:49.460Z,100257.03
2023-04-14T17:09:51.440Z,100250.03
2023-04-14T17:11:53.552Z,100250.16
2023-04-14T17:13:55.832Z,100244.84
2023-04-14T17:16:07.730Z,100242.81
2023-04-14T17:18:12.079Z,100242.06
2023-04-14T17:20:15.603Z,100250.78
2023-04-14T17:22:17.643Z,100257.41
2023-04-14T17:24:19.891Z,100252.41
2023-04-14T17:26:21.833Z,100258.44
2023-04-14T17:28:24.218Z,100261.13
2023-04-14T17:30:27.406Z,100259.28
2023-04-14T17:32:29.523Z,100266.25
2023-04-14T17:34:31.733Z,100262.16
2023-04-14T17:36:34.470Z,100270.53
2023-04-14T17:38:39.020Z,100267.16
2023-04-14T17:40:41.177Z,100262.81
2023-04-14T17:42:44.215Z,100276.53
2023-04-14T17:44:46.337Z,100267.84
2023-04-14T17:46:53.505Z,100267.16
2023-04-14T17:48:55.901Z,100263.81
2023-04-14T17:51:00.561Z,100263.75
2023-04-14T17:53:02.985Z,100274.97
2023-04-14T17:55:07.670Z,100263.63
2023-04-14T17:57:13.429Z,100270.69
2023-04-14T17:59:17.788Z,100269.03
2023-04-14T18:01:20.213Z,100262.13
2023-04-14T18:03:22.665Z,100264.81
2023-04-14T18:05:24.670Z,100263.84
2023-04-14T18:07:26.792Z,100263.47
2023-04-14T18:09:28.992Z,100273.06
2023-04-14T18:11:31.722Z,100275.84
2023-04-14T18:13:34.810Z,100274.94
2023-04-14T18:15:40.700Z,100273.97
2023-04-14T18:17:43.553Z,100284.28
2023-04-14T18:19:45.980Z,100286.00
2023-04-14T18:21:48.474Z,100279.13
2023-04-14T18:28:10.928Z,100287.72
2023-04-14T18:30:13.178Z,100291.91
2023-04-14T18:32:15.666Z,100292.81
2023-04-14T18:34:17.766Z,100299.78
2023-04-14T18:36:21.980Z,100303.28
2023-04-14T18:38:25.608Z,100306.59
2023-04-14T18:40:27.960Z,100306.59
2023-04-14T18:42:31.540Z,100311.72
2023-04-14T18:44:36.516Z,100308.38
2023-04-14T18:46:38.910Z,100312.75
2023-04-14T18:48:41.518Z,100310.16
2023-04-14T18:50:44.640Z,100315.38
2023-04-14T18:52:46.701Z,100319.56
2023-04-14T18:54:49.094Z,100314.53
2023-04-14T18:56:51.359Z,100327.31
2023-04-14T18:58:53.256Z,100328.97
2023-04-14T19:00:56.561Z,100326.38
2023-04-14T19:02:59.031Z,100334.28
2023-04-14T19:05:01.489Z,100333.31
2023-04-14T19:07:04.071Z,100332.56
2023-04-14T19:09:08.488Z,100340.28
2023-04-14T19:11:11.865Z,100345.59
2023-04-14T19:13:16.146Z,100351.59
2023-04-14T19:15:18.088Z,100352.47
2023-04-14T19:17:19.836Z,100356.75
2023-04-14T19:19:21.783Z,100353.28
2023-04-14T19:21:24.110Z,100360.19
2023-04-14T19:23:25.925Z,100361.84
2023-04-14T19:25:27.971Z,100366.97
2023-04-14T19:27:30.131Z,100374.69
2023-04-14T19:29:32.126Z,100373.91
2023-04-14T19:31:34.083Z,100377.88
2023-04-14T19:33:35.952Z,100382.16
2023-04-14T19:35:37.929Z,100381.25
2023-04-14T19:37:39.882Z,100383.63
2023-04-14T19:39:41.637Z,100384.59
2023-04-14T19:41:43.463Z,100394.78
2023-04-14T19:43:45.847Z,100399.06
2023-04-14T19:45:51.942Z,100397.22
2023-04-14T19:47:54.439Z,100400.63
2023-04-14T19:49:59.690Z,100406.59
2023-04-14T19:52:01.786Z,100414.06
2023-04-14T19:54:05.616Z,100419.28
2023-04-14T19:56:07.837Z,100420.16
2023-04-14T19:58:09.596Z,100421.88
2023-04-14T20:00:12.974Z,100430.47
2023-04-14T20:02:14.880Z,100431.41
2023-04-14T20:04:16.929Z,100432.31
2023-04-14T20:06:19.762Z,100436.63
2023-04-14T20:08:22.811Z,100449.56
2023-04-14T20:10:25.082Z,100449.50
2023-04-14T20:12:27.041Z,100446.19
2023-04-14T20:14:29.232Z,100444.50
2023-04-14T20:16:31.293Z,100443.66
2023-04-14T20:18:35.524Z,100451.28
2023-04-14T20:20:41.048Z,100459.84
2023-04-14T20:22:42.856Z,100462.50
2023-04-14T20:24:44.816Z,100464.16
2023-04-14T20:26:46.698Z,100472.66
2023-04-14T20:28:48.780Z,100476.13
2023-04-14T20:30:51.448Z,100476.13
2023-04-14T20:32:53.381Z,100479.56
2023-04-14T20:34:55.263Z,100476.84
2023-04-14T20:36:57.069Z,100481.16
2023-04-14T20:38:59.391Z,100486.28
2023-04-14T20:41:01.502Z,100482.00
2023-04-14T20:43:04.708Z,100488.03
2023-04-14T20:45:07.421Z,100493.09
2023-04-14T20:47:09.573Z,100488.88
2023-04-14T20:49:12.000Z,100485.31
2023-04-14T20:51:13.919Z,100487.88
2023-04-14T20:53:16.389Z,100493.84
2023-04-14T20:55:19.613Z,100493.84
2023-04-14T20:57:21.490Z,100493.81
2023-04-14T20:59:23.539Z,100488.66
2023-04-14T21:01:27.409Z,100492.09
2023-04-14T21:03:30.038Z,100491.19
2023-04-14T21:05:32.172Z,100500.59
2023-04-14T21:07:36.078Z,100496.28
2023-04-14T21:09:38.058Z,100494.53
2023-04-14T21:11:39.943Z,100503.00
2023-04-14T21:15:28.455Z,100505.44
2023-04-14T21:16:04.271Z,100510.66
2023-04-14T21:18:12.070Z,100510.66
2023-04-14T21:20:14.046Z,100514.94
2023-04-14T21:22:16.007Z,100512.34
2023-04-14T21:24:18.495Z,100514.13
2023-04-14T21:26:20.316Z,100523.53
2023-04-14T21:28:22.194Z,100516.69
2023-04-14T21:30:24.034Z,100523.56
2023-04-14T21:32:26.001Z,100526.88
2023-04-14T21:34:27.881Z,100527.72
2023-04-14T21:36:30.016Z,100531.09
2023-04-14T21:38:31.875Z,100525.97
2023-04-14T21:40:33.911Z,100530.28
2023-04-14T21:42:35.753Z,100534.59
2023-04-14T21:44:37.711Z,100531.22
2023-04-14T21:46:39.455Z,100536.34
2023-04-14T21:48:41.401Z,100536.25
2023-04-14T21:50:43.622Z,100539.59
2023-04-14T21:52:47.857Z,100543.00
2023-04-14T21:54:52.138Z,100542.25
2023-04-14T21:56:53.934Z,100548.25
2023-04-14T21:58:55.833Z,100549.94
2023-04-14T22:00:57.694Z,100551.69
2023-04-14T22:02:59.759Z,100561.03
2023-04-14T22:05:01.675Z,100554.91
2023-04-14T22:07:03.514Z,100561.84
2023-04-14T22:09:06.287Z,100561.63
2023-04-14T22:11:08.231Z,100562.63
2023-04-14T22:13:10.401Z,100554.75
2023-04-14T22:15:12.429Z,100555.59
2023-04-14T22:17:14.238Z,100562.47
2023-04-14T22:19:17.003Z,100553.03
2023-04-14T22:21:18.865Z,100563.22
2023-04-14T22:23:21.067Z,100561.63
2023-04-14T22:25:23.513Z,100561.69
2023-04-14T22:27:25.750Z,100562.56
2023-04-14T22:29:27.856Z,100567.69
2023-04-14T22:31:29.889Z,100565.03
2023-04-14T22:33:31.767Z,100566.66
2023-04-14T22:35:33.708Z,100568.34
2023-04-14T22:37:35.577Z,100575.31
2023-04-14T22:39:37.345Z,100583.84
2023-04-14T22:41:39.118Z,100575.38
2023-04-14T22:43:41.152Z,100577.84
2023-04-14T22:45:43.171Z,100577.09
2023-04-14T22:47:45.154Z,100577.03
2023-04-14T22:49:46.985Z,100590.63
2023-04-14T22:51:48.821Z,100587.19
2023-04-14T22:53:50.660Z,100597.31
2023-04-14T22:55:52.460Z,100599.91
2023-04-14T22:57:54.409Z,100594.78
2023-04-14T22:59:56.688Z,100595.59
2023-04-14T23:01:58.877Z,100601.53
2023-04-14T23:04:01.010Z,100599.13
2023-04-14T23:06:03.354Z,100604.19
2023-04-14T23:08:05.770Z,100604.19
2023-04-14T23:10:09.255Z,100603.97
2023-04-14T23:12:11.533Z,100616.06
2023-04-14T23:14:13.543Z,100613.56
2023-04-14T23:16:17.273Z,100615.38
2023-04-14T23:18:19.436Z,100615.16
2023-04-14T23:20:22.240Z,100616.13
2023-04-14T23:22:25.074Z,100615.31
2023-04-14T23:24:28.278Z,100620.41
2023-04-14T23:26:31.221Z,100627.16
2023-04-14T23:28:33.151Z,100621.19
2023-04-14T23:30:35.730Z,100627.19
2023-04-14T23:32:37.674Z,100625.34